createdAt,value
2023-02-05T00:01:43.861Z,102219.19
2023-02-05T00:05:45.720Z,102218.28
2023-02-05T00:09:47.553Z,102220.00
2023-02-05T00:13:49.374Z,102215.28
2023-02-05T00:17:51.160Z,102215.19
2023-02-05T00:21:52.979Z,102210.88
2023-02-05T00:25:54.888Z,102216.91
2023-02-05T00:29:56.722Z,102206.78
2023-02-05T00:33:58.545Z,102202.47
2023-02-05T00:38:00.435Z,102199.13
2023-02-05T00:42:02.189Z,102201.72
2023-02-05T00:46:04.102Z,102205.19
2023-02-05T00:50:06.306Z,102203.81
2023-02-05T00:54:08.066Z,102200.34
2023-02-05T00:58:10.054Z,102225.31
2023-02-05T01:02:11.841Z,102212.47
2023-02-05T01:06:13.778Z,102216.78
2023-02-05T01:10:15.789Z,102225.41
2023-02-05T01:14:17.679Z,102219.44
2023-02-05T01:18:19.432Z,102230.53
2023-02-05T01:22:21.292Z,102235.78
2023-02-05T01:26:23.282Z,102233.09
2023-02-05T01:30:25.019Z,102221.16
2023-02-05T01:34:26.826Z,102218.59
2023-02-05T01:38:28.651Z,102223.78
2023-02-05T01:42:32.018Z,102204.28
2023-02-05T01:46:34.394Z,102218.81
2023-02-05T01:50:54.024Z,102189.75
2023-02-05T01:54:57.152Z,102179.25
2023-02-05T01:59:16.367Z,102178.44
2023-02-05T02:03:18.394Z,102176.75
2023-02-05T02:07:21.935Z,102171.75
2023-02-05T02:11:23.731Z,102161.53
2023-02-05T02:15:26.270Z,102147.00
2023-02-05T02:19:40.884Z,102148.97
2023-02-05T02:24:34.016Z,102148.22
2023-02-05T02:28:46.640Z,102133.81
2023-02-05T02:33:09.608Z,102122.63
2023-02-05T02:37:40.551Z,102123.56
2023-02-05T02:42:08.477Z,102130.34
2023-02-05T02:46:23.312Z,102119.22
2023-02-05T02:50:33.122Z,102111.63
2023-02-05T02:54:36.055Z,102115.94
2023-02-05T02:58:50.424Z,102103.34
2023-02-05T03:02:55.869Z,102089.84
2023-02-05T03:07:06.139Z,102084.72
2023-02-05T03:11:13.280Z,102091.44
2023-02-05T03:15:15.439Z,102086.25
2023-02-05T03:19:17.226Z,102100.69
2023-02-05T03:23:19.119Z,102096.47
2023-02-05T03:27:22.072Z,102098.94
2023-02-05T03:31:33.604Z,102092.28
2023-02-05T03:35:59.839Z,102101.03
2023-02-05T03:40:26.782Z,102089.25
2023-02-05T03:44:50.973Z,102081.63
2023-02-05T03:49:20.078Z,102097.91
2023-02-05T03:53:32.237Z,102106.41
2023-02-05T03:57:49.260Z,102113.97
2023-02-05T04:01:51.045Z,102106.28
2023-02-05T04:05:52.970Z,102098.53
2023-02-05T04:09:54.775Z,102090.84
2023-02-05T04:13:56.722Z,102094.28
2023-02-05T04:17:58.785Z,102097.16
2023-02-05T04:22:00.708Z,102100.44
2023-02-05T04:26:02.594Z,102097.16
2023-02-05T04:30:06.808Z,102106.59
2023-02-05T04:34:08.616Z,102100.66
2023-02-05T04:38:12.641Z,102105.78
2023-02-05T04:42:14.797Z,102106.91
2023-02-05T04:46:16.670Z,102112.78
2023-02-05T04:50:18.540Z,102109.47
2023-02-05T04:54:20.433Z,102118.09
2023-02-05T04:58:22.238Z,102117.31
2023-02-05T05:02:24.606Z,102124.97
2023-02-05T05:06:26.601Z,102113.84
2023-02-05T05:10:28.473Z,102119.81
2023-02-05T05:14:30.301Z,102122.44
2023-02-05T05:18:32.302Z,102130.91
2023-02-05T05:22:34.220Z,102124.75
2023-02-05T05:26:36.073Z,102129.84
2023-02-05T05:30:42.207Z,102151.22
2023-02-05T05:34:44.116Z,102149.41
2023-02-05T05:38:46.194Z,102148.44
2023-02-05T05:43:06.780Z,102127.91
2023-02-05T05:47:08.828Z,102138.03
2023-02-05T05:51:10.669Z,102139.00
2023-02-05T05:55:12.490Z,102135.69
2023-02-05T05:59:14.316Z,102131.53
2023-02-05T06:03:16.192Z,102128.03
2023-02-05T06:07:18.022Z,102127.53
2023-02-05T06:11:19.852Z,102128.28
2023-02-05T06:15:21.911Z,102136.75
2023-02-05T06:19:23.859Z,102135.75
2023-02-05T06:23:25.786Z,102145.22
2023-02-05T06:27:30.442Z,102141.97
2023-02-05T06:31:32.395Z,102141.81
2023-02-05T06:35:34.535Z,102141.75
2023-02-05T06:39:37.536Z,102150.25
2023-02-05T06:43:39.290Z,102167.19
2023-02-05T06:47:44.071Z,102162.06
2023-02-05T06:51:45.983Z,102161.09
2023-02-05T06:55:47.743Z,102159.44
2023-02-05T06:59:52.240Z,102150.97
2023-02-05T07:03:56.399Z,102144.13
2023-02-05T07:07:58.402Z,102141.69
2023-02-05T07:12:00.449Z,102146.75
2023-02-05T07:16:06.949Z,102145.84
2023-02-05T07:20:09.475Z,102143.88
2023-02-05T07:24:14.775Z,102156.44
2023-02-05T07:28:16.675Z,102127.72
2023-02-05T07:32:19.052Z,102142.47
2023-02-05T07:36:23.803Z,102152.03
2023-02-05T07:40:25.591Z,102140.38
2023-02-05T07:44:27.625Z,102139.84
2023-02-05T07:48:29.801Z,102130.88
2023-02-05T07:52:32.383Z,102130.75
2023-02-05T07:56:34.706Z,102128.72
2023-02-05T08:00:36.683Z,102142.69
2023-02-05T08:04:45.724Z,102144.75
2023-02-05T08:08:47.678Z,102155.94
2023-02-05T08:12:49.602Z,102135.16
2023-02-05T08:16:51.655Z,102129.00
2023-02-05T08:20:54.544Z,102112.88
2023-02-05T08:24:56.464Z,102123.84
2023-02-05T08:28:59.920Z,102102.16
2023-02-05T08:33:01.829Z,102102.63
2023-02-05T08:37:04.370Z,102112.31
2023-02-05T08:41:12.823Z,102089.59
2023-02-05T08:45:17.346Z,102081.47
2023-02-05T08:49:24.186Z,102083.00
2023-02-05T08:53:26.271Z,102063.50
2023-02-05T08:57:30.105Z,102054.41
2023-02-05T09:01:32.336Z,102062.00
2023-02-05T09:05:34.619Z,102044.81
2023-02-05T09:09:47.610Z,102057.53
2023-02-05T09:14:41.168Z,102048.69
2023-02-05T09:18:46.334Z,102046.91
2023-02-05T09:22:52.367Z,102045.22
2023-02-05T09:26:54.739Z,102041.03
2023-02-05T09:30:56.941Z,102049.69
2023-02-05T09:34:59.045Z,102043.78
2023-02-05T09:39:14.702Z,102042.34
2023-02-05T09:43:54.888Z,102025.50
2023-02-05T09:48:23.835Z,102028.44
2023-02-05T09:52:36.477Z,102032.78
2023-02-05T09:56:58.407Z,102025.66
2023-02-05T10:01:44.008Z,102032.28
2023-02-05T10:06:22.155Z,102034.19
2023-02-05T10:10:28.866Z,102014.47
2023-02-05T10:15:13.109Z,101998.59
2023-02-05T10:19:35.309Z,102016.59
2023-02-05T10:24:09.122Z,102011.50
2023-02-05T10:28:52.001Z,101992.22
2023-02-05T10:33:05.835Z,101990.19
2023-02-05T10:37:22.761Z,101982.78
2023-02-05T10:41:31.026Z,101996.06
2023-02-05T10:45:33.349Z,101980.47
2023-02-05T10:50:01.407Z,101985.97
2023-02-05T10:54:03.612Z,101982.72
2023-02-05T10:58:34.950Z,101971.25
2023-02-05T11:02:44.682Z,101961.69
2023-02-05T11:06:53.167Z,101963.47
2023-02-05T11:10:55.183Z,101961.13
2023-02-05T11:15:01.017Z,101951.75
2023-02-05T11:19:05.138Z,101968.97
2023-02-05T11:23:21.138Z,101956.97
2023-02-05T11:27:35.170Z,101947.22
2023-02-05T11:31:37.118Z,101944.50
2023-02-05T11:35:39.120Z,101942.22
2023-02-05T11:39:41.187Z,101932.75
2023-02-05T11:43:53.003Z,101932.53
2023-02-05T11:47:55.074Z,101918.59
2023-02-05T11:52:02.506Z,101910.16
2023-02-05T11:56:12.695Z,101909.91
2023-02-05T12:00:21.982Z,101911.56
2023-02-05T12:04:24.087Z,101907.44
2023-02-05T12:08:43.036Z,101914.53
2023-02-05T12:13:02.981Z,101912.50
2023-02-05T12:17:31.477Z,101904.22
2023-02-05T12:21:53.813Z,101920.56
2023-02-05T12:26:21.017Z,101907.84
2023-02-05T12:30:35.190Z,101904.88
2023-02-05T12:34:57.421Z,101885.84
2023-02-05T12:39:54.669Z,101901.00
2023-02-05T12:44:37.768Z,101888.16
2023-02-05T12:49:11.738Z,101886.78
2023-02-05T12:53:44.751Z,101899.69
2023-02-05T12:58:04.893Z,101890.34
2023-02-05T13:02:19.720Z,101878.47
2023-02-05T13:06:29.966Z,101881.91
2023-02-05T13:10:56.729Z,101875.09
2023-02-05T13:15:21.193Z,101873.19
2023-02-05T13:19:34.291Z,101858.38
2023-02-05T13:23:59.120Z,101860.03
2023-02-05T13:28:23.095Z,101869.94
2023-02-05T13:32:25.997Z,101852.81
2023-02-05T13:37:14.662Z,101851.56
2023-02-05T13:41:25.655Z,101855.09
2023-02-05T13:45:48.949Z,101869.31
2023-02-05T13:50:33.755Z,101874.31
2023-02-05T13:54:40.853Z,101877.50
2023-02-05T13:58:59.161Z,101908.78
2023-02-05T14:03:05.785Z,101902.53
2023-02-05T14:07:30.855Z,101891.56
2023-02-05T14:12:16.754Z,101896.75
2023-02-05T14:16:26.937Z,101906.06
2023-02-05T14:20:42.011Z,101884.09
2023-02-05T14:24:48.373Z,101884.03
2023-02-05T14:28:55.359Z,101876.09
2023-02-05T14:33:39.230Z,101870.94
2023-02-05T14:37:43.007Z,101870.13
2023-02-05T14:42:00.143Z,101875.03
2023-02-05T14:46:44.773Z,101877.09
2023-02-05T14:51:27.005Z,101873.59
2023-02-05T14:56:35.576Z,101896.66
2023-02-05T15:00:47.745Z,101902.16
2023-02-05T15:05:04.617Z,101907.97
2023-02-05T15:09:44.597Z,101902.69
2023-02-05T15:14:24.512Z,101912.50
2023-02-05T15:18:37.410Z,101916.66
2023-02-05T15:22:41.266Z,101916.56
2023-02-05T15:27:00.920Z,101919.13
2023-02-05T15:31:11.954Z,101920.00
2023-02-05T15:35:16.986Z,101926.16
2023-02-05T15:39:43.432Z,101904.38
2023-02-05T15:44:10.228Z,101903.34
2023-02-05T15:48:14.454Z,101903.13
2023-02-05T15:52:26.142Z,101896.06
2023-02-05T15:56:36.664Z,101899.81
2023-02-05T16:00:38.516Z,101901.94
2023-02-05T16:04:40.856Z,101905.44
2023-02-05T16:08:47.687Z,101896.94
2023-02-05T16:13:14.876Z,101921.56
2023-02-05T16:17:27.884Z,101926.50
2023-02-05T16:21:38.089Z,101931.59
2023-02-05T16:26:04.749Z,101941.50
2023-02-05T16:30:16.696Z,101935.19
2023-02-05T16:34:18.779Z,101941.31
2023-02-05T16:38:23.972Z,101970.69
2023-02-05T16:42:44.417Z,101985.09
2023-02-05T16:46:52.711Z,101981.78
2023-02-05T16:50:56.706Z,101991.47
2023-02-05T16:55:28.451Z,101988.72
2023-02-05T16:59:55.996Z,101999.41
2023-02-05T17:03:57.840Z,101998.56
2023-02-05T17:08:02.341Z,101990.03
2023-02-05T17:12:37.394Z,101998.72
2023-02-05T17:16:42.834Z,101997.41
2023-02-05T17:20:47.293Z,101999.72
2023-02-05T17:24:49.908Z,102009.19
2023-02-05T17:29:05.775Z,102003.34
2023-02-05T17:33:28.866Z,102022.25
2023-02-05T17:37:30.656Z,102015.50
2023-02-05T17:41:54.512Z,102010.25
2023-02-05T17:45:56.391Z,102011.69
2023-02-05T17:49:58.271Z,102003.03
2023-02-05T17:54:00.181Z,102005.81
2023-02-05T17:58:02.930Z,101997.78
2023-02-05T18:02:06.471Z,101996.94
2023-02-05T18:06:09.651Z,102002.91
2023-02-05T18:10:23.162Z,101995.94
2023-02-05T18:14:25.451Z,102020.94
2023-02-05T18:18:28.514Z,102028.63
2023-02-05T18:22:31.396Z,102042.34
2023-02-05T18:26:33.432Z,102045.13
2023-02-05T18:30:35.772Z,102025.56
2023-02-05T18:34:38.106Z,102030.22
2023-02-05T18:38:40.658Z,102029.34
2023-02-05T18:42:42.828Z,102030.28
2023-02-05T18:46:47.895Z,102025.19
2023-02-05T18:50:49.709Z,102032.31
2023-02-05T18:54:55.099Z,102037.09
2023-02-05T18:59:01.581Z,102035.41
2023-02-05T19:03:07.612Z,102050.72
2023-02-05T19:07:09.533Z,102065.41
2023-02-05T19:11:27.848Z,102063.69
2023-02-05T19:15:29.928Z,102052.16
2023-02-05T19:19:32.170Z,102061.88
2023-02-05T19:23:36.689Z,102072.72
2023-02-05T19:27:38.743Z,102084.59
2023-02-05T19:31:41.833Z,102088.97
2023-02-05T19:35:44.899Z,102093.28
2023-02-05T19:39:49.653Z,102073.84
2023-02-05T19:44:08.396Z,102079.28
2023-02-05T19:48:13.314Z,102092.94
2023-02-05T19:52:21.950Z,102101.41
2023-02-05T19:56:24.432Z,102098.91
2023-02-05T20:00:38.331Z,102109.06
2023-02-05T20:04:43.696Z,102094.56
2023-02-05T20:08:48.782Z,102113.38
2023-02-05T20:13:00.468Z,102111.91
2023-02-05T20:17:05.147Z,102104.19
2023-02-05T20:21:15.491Z,102090.69
2023-02-05T20:25:32.126Z,102104.25
2023-02-05T20:29:52.998Z,102107.59
2023-02-05T20:34:00.899Z,102103.38
2023-02-05T20:38:02.978Z,102097.31
2023-02-05T20:42:07.528Z,102104.09
2023-02-05T20:46:29.325Z,102107.72
2023-02-05T20:50:33.142Z,102097.38
2023-02-05T20:54:35.754Z,102088.00
2023-02-05T20:58:37.917Z,102092.31
2023-02-05T21:02:47.850Z,102093.25
2023-02-05T21:06:57.425Z,102095.97
2023-02-05T21:11:07.852Z,102101.09
2023-02-05T21:15:19.252Z,102102.75
2023-02-05T21:19:21.329Z,102118.97
2023-02-05T21:23:25.398Z,102127.50
2023-02-05T21:27:27.302Z,102140.56
2023-02-05T21:31:35.801Z,102146.63
2023-02-05T21:35:38.829Z,102153.38
2023-02-05T21:39:41.033Z,102155.97
2023-02-05T21:43:43.313Z,102168.78
2023-02-05T21:47:45.416Z,102183.34
2023-02-05T21:51:48.341Z,102178.28
2023-02-05T21:55:50.470Z,102191.09
2023-02-05T21:59:52.846Z,102190.44
2023-02-05T22:04:07.360Z,102200.78
2023-02-05T22:08:11.752Z,102187.19
2023-02-05T22:12:14.224Z,102188.06
2023-02-05T22:16:19.299Z,102203.50
2023-02-05T22:20:21.193Z,102228.34
2023-02-05T22:24:25.608Z,102221.38
2023-02-05T22:28:27.721Z,102224.00
2023-02-05T22:32:29.597Z,102245.38
2023-02-05T22:36:32.602Z,102249.78
2023-02-05T22:40:34.463Z,102228.47
2023-02-05T22:44:36.435Z,102228.44
2023-02-05T22:48:40.003Z,102219.91
2023-02-05T22:52:41.823Z,102206.19
2023-02-05T22:56:44.313Z,102213.81
2023-02-05T23:00:46.400Z,102223.31
2023-02-05T23:04:48.210Z,102225.09
2023-02-05T23:09:08.466Z,102236.09
2023-02-05T23:13:10.332Z,102236.97
2023-02-05T23:17:12.126Z,102230.19
2023-02-05T23:21:22.130Z,102235.28
2023-02-05T23:25:24.264Z,102242.97
2023-02-05T23:29:27.078Z,102237.03
2023-02-05T23:33:29.359Z,102237.03
2023-02-05T23:37:31.256Z,102226.84
2023-02-05T23:41:36.446Z,102211.50
2023-02-05T23:45:38.626Z,102227.81
2023-02-05T23:49:40.492Z,102209.88
2023-02-05T23:53:42.211Z,102200.47
2023-02-05T23:57:44.142Z,102208.19
